createdAt,value
2019-04-06T00:01:24.180Z,37.23
2019-04-06T00:07:30.458Z,37.13
2019-04-06T00:13:36.635Z,36.07
2019-04-06T00:19:42.571Z,35.47
2019-04-06T00:25:48.906Z,36.43
2019-04-06T00:32:00.535Z,35.47
2019-04-06T00:38:06.297Z,35.70
2019-04-06T00:44:12.079Z,35.83
2019-04-06T00:50:18.107Z,34.90
2019-04-06T00:56:24.008Z,35.30
2019-04-06T01:02:30.285Z,35.03
2019-04-06T01:08:36.212Z,35.43
2019-04-06T01:14:42.068Z,34.53
2019-04-06T01:20:49.494Z,36.07
2019-04-06T01:26:55.325Z,35.30
2019-04-06T01:33:01.091Z,34.70
2019-04-06T01:39:08.127Z,35.13
2019-04-06T01:45:13.849Z,35.23
2019-04-06T01:51:19.865Z,34.67
2019-04-06T01:57:26.331Z,34.97
2019-04-06T02:03:32.097Z,34.53
2019-04-06T02:09:37.946Z,33.33
2019-04-06T02:15:44.376Z,34.63
2019-04-06T02:21:50.168Z,34.40
2019-04-06T02:27:56.025Z,34.10
2019-04-06T02:34:27.564Z,33.00
2019-04-06T02:40:41.196Z,35.97
2019-04-06T02:46:47.187Z,34.30
2019-04-06T02:52:52.894Z,35.17
2019-04-06T02:58:58.754Z,33.73
2019-04-06T03:05:04.767Z,33.97
2019-04-06T03:11:11.200Z,32.77
2019-04-06T03:17:17.265Z,34.47
2019-04-06T03:23:24.857Z,33.03
2019-04-06T03:29:31.131Z,33.63
2019-04-06T03:35:36.992Z,34.80
2019-04-06T03:41:42.973Z,33.23
2019-04-06T03:47:48.715Z,34.43
2019-04-06T03:53:54.469Z,33.53
2019-04-06T04:00:01.359Z,34.80
2019-04-06T04:06:07.381Z,33.27
2019-04-06T04:12:13.972Z,32.87
2019-04-06T04:18:21.697Z,33.77
2019-04-06T04:24:28.238Z,33.27
2019-04-06T04:30:35.549Z,33.37
2019-04-06T04:36:42.071Z,34.00
2019-04-06T04:42:47.887Z,33.90
2019-04-06T04:48:55.279Z,32.97
2019-04-06T04:55:01.005Z,33.57
2019-04-06T05:01:06.762Z,50.43
2019-04-06T05:07:12.797Z,34.53
2019-04-06T05:13:18.699Z,35.60
2019-04-06T05:19:24.532Z,40.53
2019-04-06T05:25:30.338Z,34.37
2019-04-06T05:31:36.265Z,36.50
2019-04-06T05:37:42.704Z,39.40
2019-04-06T05:43:48.750Z,33.57
2019-04-06T05:49:54.551Z,31.90
2019-04-06T05:56:00.277Z,34.53
2019-04-06T06:02:07.826Z,31.80
2019-04-06T06:08:13.743Z,39.67
2019-04-06T06:14:19.480Z,30.77
2019-04-06T06:20:25.248Z,31.50
2019-04-06T06:26:31.751Z,31.47
2019-04-06T06:32:38.383Z,31.77
2019-04-06T06:38:44.355Z,39.03
2019-04-06T06:44:50.562Z,33.27
2019-04-06T06:50:56.484Z,30.57
2019-04-06T06:57:02.405Z,31.00
2019-04-06T07:03:08.241Z,31.67
2019-04-06T07:09:14.009Z,32.80
2019-04-06T07:15:20.392Z,32.70
2019-04-06T07:21:31.694Z,31.20
2019-04-06T07:27:37.525Z,31.07
2019-04-06T07:33:43.600Z,30.37
2019-04-06T07:39:49.429Z,29.03
2019-04-06T07:45:55.230Z,31.33
2019-04-06T07:52:01.299Z,29.57
2019-04-06T07:58:07.446Z,28.90
2019-04-06T08:04:13.534Z,29.90
2019-04-06T08:10:19.507Z,28.23
2019-04-06T08:16:25.473Z,28.60
2019-04-06T08:22:31.448Z,37.97
2019-04-06T08:28:37.564Z,27.93
2019-04-06T08:34:43.499Z,29.30
2019-04-06T08:40:49.907Z,28.67
2019-04-06T08:46:55.827Z,28.63
2019-04-06T08:53:01.620Z,29.07
2019-04-06T08:59:12.335Z,28.70
2019-04-06T09:05:15.728Z,28.03
2019-04-06T09:11:21.527Z,27.43
2019-04-06T09:17:27.680Z,28.37
2019-04-06T09:23:33.515Z,27.73
2019-04-06T09:29:39.518Z,28.53
2019-04-06T09:35:45.534Z,29.30
2019-04-06T09:41:51.939Z,27.87
2019-04-06T09:48:07.480Z,27.80
2019-04-06T09:54:38.247Z,27.47
2019-04-06T10:00:54.367Z,28.00
2019-04-06T10:07:21.769Z,28.00
2019-04-06T10:13:36.929Z,28.30
2019-04-06T10:19:54.297Z,28.60
2019-04-06T10:26:09.688Z,28.43
2019-04-06T10:32:34.344Z,28.57
2019-04-06T10:39:01.758Z,29.40
2019-04-06T10:45:26.536Z,29.97
2019-04-06T10:51:51.141Z,28.33
2019-04-06T10:58:17.191Z,28.70
2019-04-06T11:04:40.770Z,28.40
2019-04-06T11:10:53.043Z,29.77
2019-04-06T11:23:54.035Z,30.57
2019-04-06T11:30:16.286Z,31.87
2019-04-06T11:36:39.957Z,30.83
2019-04-06T11:43:14.273Z,30.03
2019-04-06T11:49:58.193Z,29.30
2019-04-06T11:56:12.781Z,30.30
2019-04-06T12:02:38.111Z,31.00
2019-04-06T12:08:53.119Z,32.67
2019-04-06T12:15:12.045Z,32.43
2019-04-06T12:21:35.549Z,31.53
2019-04-06T12:27:58.804Z,32.63
2019-04-06T12:34:23.611Z,33.10
2019-04-06T12:40:43.534Z,33.03
2019-04-06T12:47:06.763Z,32.53
2019-04-06T12:53:27.191Z,31.70
2019-04-06T12:59:55.105Z,33.13
2019-04-06T13:06:24.219Z,32.50
2019-04-06T13:13:01.206Z,46.27
2019-04-06T13:19:41.296Z,32.63
2019-04-06T13:26:17.859Z,43.17
2019-04-06T13:32:42.835Z,31.90
2019-04-06T13:39:07.183Z,29.70
2019-04-06T13:45:34.924Z,29.60
2019-04-06T13:51:52.631Z,29.80
2019-04-06T13:58:04.293Z,29.37
2019-04-06T14:04:44.273Z,29.23
2019-04-06T14:11:10.931Z,28.27
2019-04-06T14:17:54.475Z,28.70
2019-04-06T14:24:17.624Z,29.27
2019-04-06T14:30:42.407Z,26.90
2019-04-06T14:37:03.980Z,39.50
2019-04-06T14:43:27.895Z,26.63
2019-04-06T14:49:52.582Z,22.07
2019-04-06T14:56:12.513Z,20.57
2019-04-06T15:02:35.355Z,21.20
2019-04-06T15:09:07.395Z,21.77
2019-04-06T15:15:27.636Z,20.27
2019-04-06T15:21:53.041Z,19.80
2019-04-06T15:28:29.999Z,19.70
2019-04-06T15:34:53.102Z,19.77
2019-04-06T15:41:14.224Z,19.27
2019-04-06T15:47:38.822Z,18.33
2019-04-06T15:53:51.542Z,18.37
2019-04-06T16:00:06.340Z,18.60
2019-04-06T16:06:21.143Z,18.90
2019-04-06T16:12:35.648Z,18.57
2019-04-06T16:18:59.065Z,18.20
2019-04-06T16:25:27.412Z,17.33
2019-04-06T16:31:43.810Z,17.07
2019-04-06T16:38:08.764Z,17.17
2019-04-06T16:44:35.034Z,16.47
2019-04-06T16:50:55.386Z,16.23
2019-04-06T16:57:18.069Z,16.03
2019-04-06T17:04:01.373Z,15.47
2019-04-06T17:10:24.680Z,15.53
2019-04-06T17:16:51.295Z,23.37
2019-04-06T17:23:25.188Z,32.33
2019-04-06T17:29:48.228Z,36.40
2019-04-06T17:36:06.361Z,37.27
2019-04-06T17:42:34.107Z,36.97
2019-04-06T17:49:05.920Z,38.03
2019-04-06T17:55:20.653Z,40.60
2019-04-06T18:01:44.466Z,38.23
2019-04-06T18:08:07.958Z,41.00
2019-04-06T18:14:13.869Z,40.93
2019-04-06T18:20:19.968Z,40.57
2019-04-06T18:26:25.746Z,41.10
2019-04-06T18:32:57.842Z,43.70
2019-04-06T18:39:01.028Z,43.00
2019-04-06T18:45:06.903Z,42.60
2019-04-06T18:51:12.721Z,45.57
2019-04-06T18:57:18.871Z,43.47
2019-04-06T19:03:25.292Z,45.83
2019-04-06T19:09:31.569Z,45.87
2019-04-06T19:15:37.739Z,46.50
2019-04-06T19:21:43.704Z,43.40
2019-04-06T19:27:49.736Z,40.30
2019-04-06T19:34:02.444Z,40.10
2019-04-06T19:40:11.635Z,41.63
2019-04-06T19:46:19.457Z,43.47
2019-04-06T19:52:25.618Z,44.77
2019-04-06T19:58:31.508Z,44.50
2019-04-06T20:04:37.653Z,43.10
2019-04-06T20:10:43.730Z,41.77
2019-04-06T20:16:51.210Z,43.73
2019-04-06T20:22:57.058Z,42.03
2019-04-06T20:29:02.904Z,43.10
2019-04-06T20:35:09.719Z,42.83
2019-04-06T20:41:15.709Z,40.07
2019-04-06T20:47:21.658Z,36.57
2019-04-06T20:53:27.677Z,40.17
2019-04-06T20:59:33.443Z,43.63
2019-04-06T21:05:40.503Z,42.97
2019-04-06T21:11:46.918Z,41.30
2019-04-06T21:17:53.419Z,39.70
2019-04-06T21:23:59.419Z,40.63
2019-04-06T21:30:06.205Z,41.50
2019-04-06T21:36:11.996Z,41.30
2019-04-06T21:42:18.216Z,48.30
2019-04-06T21:48:24.887Z,41.23
2019-04-06T21:54:30.883Z,45.17
2019-04-06T22:00:43.718Z,44.87
2019-04-06T22:06:50.615Z,44.30
2019-04-06T22:12:56.768Z,39.23
2019-04-06T22:19:03.228Z,42.63
2019-04-06T22:25:09.572Z,43.27
2019-04-06T22:31:15.592Z,43.77
2019-04-06T22:37:21.776Z,41.47
2019-04-06T22:43:27.593Z,42.27
2019-04-06T22:49:33.852Z,43.93
2019-04-06T22:55:40.252Z,42.03
2019-04-06T23:01:46.271Z,41.17
2019-04-06T23:07:53.374Z,47.13
2019-04-06T23:13:59.638Z,40.97
2019-04-06T23:20:05.757Z,42.40
2019-04-06T23:26:11.607Z,39.93
2019-04-06T23:32:18.139Z,42.07
2019-04-06T23:38:24.822Z,42.73
2019-04-06T23:44:30.956Z,40.60
2019-04-06T23:50:36.678Z,40.30
2019-04-06T23:56:43.966Z,39.67
